sensor_id;sensor_type;location;lat;lon;timestamp;P1;durP1;ratioP1;P2;durP2;ratioP2
71696;SDS011;59528;59.082;37.926;2023-02-01T00:01:17;0.37;;;0.20;;
71696;SDS011;59528;59.082;37.926;2023-02-01T00:03:43;0.30;;;0.20;;
71696;SDS011;59528;59.082;37.926;2023-02-01T00:06:09;0.20;;;0.20;;
71696;SDS011;59528;59.082;37.926;2023-02-01T00:08:34;0.30;;;0.27;;
71696;SDS011;59528;59.082;37.926;2023-02-01T00:11:04;0.40;;;0.20;;
71696;SDS011;59528;59.082;37.926;2023-02-01T00:13:30;0.40;;;0.20;;
71696;SDS011;59528;59.082;37.926;2023-02-01T00:16:04;0.47;;;0.10;;
71696;SDS011;59528;59.082;37.926;2023-02-01T00:18:30;0.30;;;0.27;;
71696;SDS011;59528;59.082;37.926;2023-02-01T00:20:55;0.20;;;0.17;;
71696;SDS011;59528;59.082;37.926;2023-02-01T00:23:22;0.20;;;0.20;;
71696;SDS011;59528;59.082;37.926;2023-02-01T00:25:47;0.30;;;0.20;;
71696;SDS011;59528;59.082;37.926;2023-02-01T00:28:15;0.10;;;0.10;;
71696;SDS011;59528;59.082;37.926;2023-02-01T00:30:41;0.13;;;0.10;;
71696;SDS011;59528;59.082;37.926;2023-02-01T00:33:06;0.57;;;0.20;;
71696;SDS011;59528;59.082;37.926;2023-02-01T00:35:33;0.80;;;0.30;;
71696;SDS011;59528;59.082;37.926;2023-02-01T00:37:59;0.20;;;0.20;;
71696;SDS011;59528;59.082;37.926;2023-02-01T00:40:28;0.50;;;0.23;;
71696;SDS011;59528;59.082;37.926;2023-02-01T00:42:54;0.50;;;0.23;;
71696;SDS011;59528;59.082;37.926;2023-02-01T00:45:22;0.30;;;0.20;;
71696;SDS011;59528;59.082;37.926;2023-02-01T00:47:48;0.33;;;0.30;;
71696;SDS011;59528;59.082;37.926;2023-02-01T00:50:13;0.40;;;0.20;;
71696;SDS011;59528;59.082;37.926;2023-02-01T00:52:39;0.60;;;0.20;;
71696;SDS011;59528;59.082;37.926;2023-02-01T00:55:05;0.27;;;0.27;;
71696;SDS011;59528;59.082;37.926;2023-02-01T00:57:31;0.40;;;0.30;;
71696;SDS011;59528;59.082;37.926;2023-02-01T00:59:56;0.30;;;0.10;;
71696;SDS011;59528;59.082;37.926;2023-02-01T01:02:22;0.43;;;0.30;;
71696;SDS011;59528;59.082;37.926;2023-02-01T01:04:48;0.40;;;0.30;;
71696;SDS011;59528;59.082;37.926;2023-02-01T01:07:13;0.10;;;0.10;;
71696;SDS011;59528;59.082;37.926;2023-02-01T01:09:39;0.40;;;0.30;;
71696;SDS011;59528;59.082;37.926;2023-02-01T01:12:04;0.20;;;0.20;;
71696;SDS011;59528;59.082;37.926;2023-02-01T01:14:30;0.47;;;0.30;;
71696;SDS011;59528;59.082;37.926;2023-02-01T01:16:57;0.40;;;0.10;;
71696;SDS011;59528;59.082;37.926;2023-02-01T01:19:22;0.47;;;0.30;;
71696;SDS011;59528;59.082;37.926;2023-02-01T01:21:48;0.40;;;0.30;;
71696;SDS011;59528;59.082;37.926;2023-02-01T01:24:14;0.30;;;0.20;;
71696;SDS011;59528;59.082;37.926;2023-02-01T01:26:40;0.17;;;0.17;;
71696;SDS011;59528;59.082;37.926;2023-02-01T01:29:05;0.40;;;0.30;;
71696;SDS011;59528;59.082;37.926;2023-02-01T01:31:31;0.77;;;0.30;;
71696;SDS011;59528;59.082;37.926;2023-02-01T01:33:58;0.83;;;0.20;;
71696;SDS011;59528;59.082;37.926;2023-02-01T01:36:24;0.50;;;0.30;;
71696;SDS011;59528;59.082;37.926;2023-02-01T01:38:51;0.27;;;0.20;;
71696;SDS011;59528;59.082;37.926;2023-02-01T01:41:24;0.40;;;0.20;;
71696;SDS011;59528;59.082;37.926;2023-02-01T01:46:27;0.20;;;0.20;;
71696;SDS011;59528;59.082;37.926;2023-02-01T01:49:14;0.20;;;0.20;;
71696;SDS011;59528;59.082;37.926;2023-02-01T01:51:44;0.27;;;0.10;;
71696;SDS011;59528;59.082;37.926;2023-02-01T01:54:17;0.50;;;0.20;;
71696;SDS011;59528;59.082;37.926;2023-02-01T01:56:45;0.50;;;0.17;;
71696;SDS011;59528;59.082;37.926;2023-02-01T01:59:11;0.20;;;0.20;;
71696;SDS011;59528;59.082;37.926;2023-02-01T02:01:38;0.80;;;0.30;;
71696;SDS011;59528;59.082;37.926;2023-02-01T02:04:04;0.67;;;0.30;;
71696;SDS011;59528;59.082;37.926;2023-02-01T02:06:43;0.23;;;0.20;;
71696;SDS011;59528;59.082;37.926;2023-02-01T02:09:13;0.50;;;0.20;;
71696;SDS011;59528;59.082;37.926;2023-02-01T02:11:39;0.40;;;0.40;;
71696;SDS011;59528;59.082;37.926;2023-02-01T02:14:06;0.23;;;0.20;;
71696;SDS011;59528;59.082;37.926;2023-02-01T02:48:52;0.37;;;0.20;;
71696;SDS011;59528;59.082;37.926;2023-02-01T02:51:34;0.50;;;0.30;;
71696;SDS011;59528;59.082;37.926;2023-02-01T02:54:21;0.37;;;0.20;;
71696;SDS011;59528;59.082;37.926;2023-02-01T02:57:07;0.27;;;0.10;;
71696;SDS011;59528;59.082;37.926;2023-02-01T02:59:53;0.20;;;0.10;;
71696;SDS011;59528;59.082;37.926;2023-02-01T03:02:39;0.23;;;0.10;;
71696;SDS011;59528;59.082;37.926;2023-02-01T03:05:23;0.07;;;0.07;;
71696;SDS011;59528;59.082;37.926;2023-02-01T03:12:44;0.57;;;0.13;;
71696;SDS011;59528;59.082;37.926;2023-02-01T03:15:33;0.53;;;0.20;;
71696;SDS011;59528;59.082;37.926;2023-02-01T03:18:01;0.80;;;0.23;;
71696;SDS011;59528;59.082;37.926;2023-02-01T03:20:27;0.50;;;0.13;;
71696;SDS011;59528;59.082;37.926;2023-02-01T03:22:54;0.40;;;0.20;;
71696;SDS011;59528;59.082;37.926;2023-02-01T03:25:21;0.50;;;0.20;;
71696;SDS011;59528;59.082;37.926;2023-02-01T03:27:52;0.10;;;0.10;;
71696;SDS011;59528;59.082;37.926;2023-02-01T03:30:28;0.50;;;0.20;;
71696;SDS011;59528;59.082;37.926;2023-02-01T03:32:55;0.43;;;0.17;;
71696;SDS011;59528;59.082;37.926;2023-02-01T03:40:36;0.43;;;0.20;;
71696;SDS011;59528;59.082;37.926;2023-02-01T03:43:02;0.73;;;0.10;;
71696;SDS011;59528;59.082;37.926;2023-02-01T03:45:43;0.40;;;0.20;;
71696;SDS011;59528;59.082;37.926;2023-02-01T03:48:11;0.30;;;0.20;;
71696;SDS011;59528;59.082;37.926;2023-02-01T03:50:38;0.13;;;0.10;;
71696;SDS011;59528;59.082;37.926;2023-02-01T03:53:10;0.73;;;0.27;;
71696;SDS011;59528;59.082;37.926;2023-02-01T03:55:37;0.50;;;0.30;;
71696;SDS011;59528;59.082;37.926;2023-02-01T03:58:11;0.30;;;0.30;;
71696;SDS011;59528;59.082;37.926;2023-02-01T04:00:38;0.17;;;0.13;;
71696;SDS011;59528;59.082;37.926;2023-02-01T04:03:05;0.30;;;0.23;;
71696;SDS011;59528;59.082;37.926;2023-02-01T04:05:30;0.50;;;0.30;;
71696;SDS011;59528;59.082;37.926;2023-02-01T04:08:01;0.30;;;0.20;;
71696;SDS011;59528;59.082;37.926;2023-02-01T04:10:26;0.23;;;0.20;;
71696;SDS011;59528;59.082;37.926;2023-02-01T04:12:55;0.47;;;0.20;;
71696;SDS011;59528;59.082;37.926;2023-02-01T04:15:20;0.20;;;0.20;;
71696;SDS011;59528;59.082;37.926;2023-02-01T04:17:46;0.43;;;0.23;;
71696;SDS011;59528;59.082;37.926;2023-02-01T04:20:11;0.23;;;0.20;;
71696;SDS011;59528;59.082;37.926;2023-02-01T04:22:38;0.47;;;0.20;;
71696;SDS011;59528;59.082;37.926;2023-02-01T04:25:58;0.23;;;0.20;;
71696;SDS011;59528;59.082;37.926;2023-02-01T04:29:16;0.17;;;0.17;;
71696;SDS011;59528;59.082;37.926;2023-02-01T04:32:41;0.40;;;0.30;;
71696;SDS011;59528;59.082;37.926;2023-02-01T04:35:09;0.30;;;0.20;;
71696;SDS011;59528;59.082;37.926;2023-02-01T04:37:35;0.67;;;0.40;;
71696;SDS011;59528;59.082;37.926;2023-02-01T04:40:00;3.40;;;0.80;;
71696;SDS011;59528;59.082;37.926;2023-02-01T04:42:28;7.20;;;1.57;;
71696;SDS011;59528;59.082;37.926;2023-02-01T04:44:54;3.87;;;1.10;;
71696;SDS011;59528;59.082;37.926;2023-02-01T04:47:20;7.63;;;1.60;;
71696;SDS011;59528;59.082;37.926;2023-02-01T04:49:45;7.40;;;1.20;;
71696;SDS011;59528;59.082;37.926;2023-02-01T04:52:11;8.63;;;2.00;;
71696;SDS011;59528;59.082;37.926;2023-02-01T04:54:37;6.13;;;1.80;;
71696;SDS011;59528;59.082;37.926;2023-02-01T04:57:03;8.13;;;1.57;;
71696;SDS011;59528;59.082;37.926;2023-02-01T04:59:28;7.93;;;1.53;;
71696;SDS011;59528;59.082;37.926;2023-02-01T05:01:54;7.50;;;1.60;;
71696;SDS011;59528;59.082;37.926;2023-02-01T05:04:19;7.93;;;1.87;;
71696;SDS011;59528;59.082;37.926;2023-02-01T05:06:45;5.20;;;1.67;;
71696;SDS011;59528;59.082;37.926;2023-02-01T05:09:11;4.73;;;1.43;;
71696;SDS011;59528;59.082;37.926;2023-02-01T05:11:37;6.47;;;1.90;;
71696;SDS011;59528;59.082;37.926;2023-02-01T05:14:21;6.03;;;1.90;;
71696;SDS011;59528;59.082;37.926;2023-02-01T05:16:46;5.70;;;1.67;;
71696;SDS011;59528;59.082;37.926;2023-02-01T05:19:12;7.63;;;2.20;;
71696;SDS011;59528;59.082;37.926;2023-02-01T05:21:38;5.20;;;1.90;;
71696;SDS011;59528;59.082;37.926;2023-02-01T05:24:04;4.43;;;1.97;;
71696;SDS011;59528;59.082;37.926;2023-02-01T05:26:36;5.17;;;2.00;;
71696;SDS011;59528;59.082;37.926;2023-02-01T05:29:02;9.53;;;2.20;;
71696;SDS011;59528;59.082;37.926;2023-02-01T05:31:30;5.53;;;2.17;;
71696;SDS011;59528;59.082;37.926;2023-02-01T05:33:56;4.30;;;2.20;;
71696;SDS011;59528;59.082;37.926;2023-02-01T05:36:21;4.77;;;1.90;;
71696;SDS011;59528;59.082;37.926;2023-02-01T05:38:47;3.77;;;2.03;;
71696;SDS011;59528;59.082;37.926;2023-02-01T05:41:13;3.73;;;2.17;;
71696;SDS011;59528;59.082;37.926;2023-02-01T05:43:39;5.47;;;2.43;;
71696;SDS011;59528;59.082;37.926;2023-02-01T05:46:05;4.97;;;2.37;;
71696;SDS011;59528;59.082;37.926;2023-02-01T05:48:30;3.33;;;2.10;;
71696;SDS011;59528;59.082;37.926;2023-02-01T05:50:56;4.57;;;2.23;;
71696;SDS011;59528;59.082;37.926;2023-02-01T05:53:22;3.10;;;1.90;;
71696;SDS011;59528;59.082;37.926;2023-02-01T05:55:47;4.33;;;2.10;;
71696;SDS011;59528;59.082;37.926;2023-02-01T05:58:13;6.83;;;2.50;;
71696;SDS011;59528;59.082;37.926;2023-02-01T06:00:39;4.43;;;2.30;;
71696;SDS011;59528;59.082;37.926;2023-02-01T06:03:05;3.13;;;2.23;;
71696;SDS011;59528;59.082;37.926;2023-02-01T06:05:30;2.90;;;2.23;;
71696;SDS011;59528;59.082;37.926;2023-02-01T06:07:56;4.17;;;2.50;;
71696;SDS011;59528;59.082;37.926;2023-02-01T06:10:22;4.30;;;2.40;;
71696;SDS011;59528;59.082;37.926;2023-02-01T06:12:48;5.40;;;2.43;;
71696;SDS011;59528;59.082;37.926;2023-02-01T06:15:15;5.40;;;2.53;;
71696;SDS011;59528;59.082;37.926;2023-02-01T06:17:44;5.17;;;2.43;;
71696;SDS011;59528;59.082;37.926;2023-02-01T06:20:10;3.80;;;2.30;;
71696;SDS011;59528;59.082;37.926;2023-02-01T06:22:36;4.47;;;2.47;;
71696;SDS011;59528;59.082;37.926;2023-02-01T06:25:05;3.50;;;2.43;;
71696;SDS011;59528;59.082;37.926;2023-02-01T06:27:31;3.27;;;2.20;;
71696;SDS011;59528;59.082;37.926;2023-02-01T06:29:57;4.00;;;2.30;;
71696;SDS011;59528;59.082;37.926;2023-02-01T06:32:23;4.40;;;2.50;;
71696;SDS011;59528;59.082;37.926;2023-02-01T06:34:49;3.67;;;2.20;;
71696;SDS011;59528;59.082;37.926;2023-02-01T06:37:14;2.60;;;2.10;;
71696;SDS011;59528;59.082;37.926;2023-02-01T06:39:40;2.27;;;1.90;;
71696;SDS011;59528;59.082;37.926;2023-02-01T06:42:05;3.53;;;1.87;;
71696;SDS011;59528;59.082;37.926;2023-02-01T06:44:31;3.70;;;1.90;;
71696;SDS011;59528;59.082;37.926;2023-02-01T06:46:57;3.93;;;2.27;;
71696;SDS011;59528;59.082;37.926;2023-02-01T06:49:22;2.83;;;2.10;;
71696;SDS011;59528;59.082;37.926;2023-02-01T06:51:48;3.07;;;2.00;;
71696;SDS011;59528;59.082;37.926;2023-02-01T06:54:14;3.50;;;2.20;;
71696;SDS011;59528;59.082;37.926;2023-02-01T06:56:40;3.00;;;2.00;;
71696;SDS011;59528;59.082;37.926;2023-02-01T06:59:06;3.53;;;2.20;;
71696;SDS011;59528;59.082;37.926;2023-02-01T07:01:32;3.97;;;2.10;;
71696;SDS011;59528;59.082;37.926;2023-02-01T07:03:58;2.80;;;1.80;;
71696;SDS011;59528;59.082;37.926;2023-02-01T07:06:24;4.13;;;2.00;;
71696;SDS011;59528;59.082;37.926;2023-02-01T07:08:49;2.90;;;1.80;;
71696;SDS011;59528;59.082;37.926;2023-02-01T07:11:16;4.00;;;2.20;;
71696;SDS011;59528;59.082;37.926;2023-02-01T07:13:42;2.37;;;1.77;;
71696;SDS011;59528;59.082;37.926;2023-02-01T07:16:11;2.33;;;1.67;;
71696;SDS011;59528;59.082;37.926;2023-02-01T07:18:37;3.73;;;1.90;;
71696;SDS011;59528;59.082;37.926;2023-02-01T07:21:03;2.40;;;1.70;;
71696;SDS011;59528;59.082;37.926;2023-02-01T07:23:29;2.37;;;2.00;;
71696;SDS011;59528;59.082;37.926;2023-02-01T07:25:56;2.63;;;1.83;;
71696;SDS011;59528;59.082;37.926;2023-02-01T07:28:22;2.80;;;1.77;;
71696;SDS011;59528;59.082;37.926;2023-02-01T07:30:47;2.10;;;1.70;;
71696;SDS011;59528;59.082;37.926;2023-02-01T07:33:17;4.07;;;1.80;;
71696;SDS011;59528;59.082;37.926;2023-02-01T07:35:43;3.10;;;1.90;;
71696;SDS011;59528;59.082;37.926;2023-02-01T07:38:09;2.63;;;1.73;;
71696;SDS011;59528;59.082;37.926;2023-02-01T07:40:36;1.50;;;1.23;;
71696;SDS011;59528;59.082;37.926;2023-02-01T07:43:01;2.37;;;1.70;;
71696;SDS011;59528;59.082;37.926;2023-02-01T07:45:27;2.10;;;1.70;;
71696;SDS011;59528;59.082;37.926;2023-02-01T07:47:53;2.30;;;1.50;;
71696;SDS011;59528;59.082;37.926;2023-02-01T07:50:19;2.03;;;1.80;;
71696;SDS011;59528;59.082;37.926;2023-02-01T07:52:44;2.30;;;1.57;;
71696;SDS011;59528;59.082;37.926;2023-02-01T07:55:10;3.30;;;1.60;;
71696;SDS011;59528;59.082;37.926;2023-02-01T07:57:36;2.33;;;1.40;;
71696;SDS011;59528;59.082;37.926;2023-02-01T08:00:03;2.07;;;1.30;;
71696;SDS011;59528;59.082;37.926;2023-02-01T08:02:47;2.37;;;1.50;;
71696;SDS011;59528;59.082;37.926;2023-02-01T08:05:12;4.07;;;1.57;;
71696;SDS011;59528;59.082;37.926;2023-02-01T08:07:38;1.93;;;1.53;;
71696;SDS011;59528;59.082;37.926;2023-02-01T08:10:04;1.83;;;1.53;;
71696;SDS011;59528;59.082;37.926;2023-02-01T08:12:38;2.53;;;1.73;;
71696;SDS011;59528;59.082;37.926;2023-02-01T08:15:04;1.93;;;1.50;;
71696;SDS011;59528;59.082;37.926;2023-02-01T08:17:30;2.23;;;1.53;;
71696;SDS011;59528;59.082;37.926;2023-02-01T08:19:55;1.93;;;1.50;;
71696;SDS011;59528;59.082;37.926;2023-02-01T08:22:21;2.10;;;1.50;;
71696;SDS011;59528;59.082;37.926;2023-02-01T08:24:47;2.97;;;1.63;;
71696;SDS011;59528;59.082;37.926;2023-02-01T08:27:13;2.13;;;1.33;;
71696;SDS011;59528;59.082;37.926;2023-02-01T08:29:39;1.93;;;1.20;;
71696;SDS011;59528;59.082;37.926;2023-02-01T08:32:04;1.33;;;1.10;;
71696;SDS011;59528;59.082;37.926;2023-02-01T08:34:30;2.13;;;1.30;;
71696;SDS011;59528;59.082;37.926;2023-02-01T08:36:56;1.70;;;1.33;;
71696;SDS011;59528;59.082;37.926;2023-02-01T08:39:25;1.53;;;1.40;;
71696;SDS011;59528;59.082;37.926;2023-02-01T08:41:51;2.10;;;1.40;;
71696;SDS011;59528;59.082;37.926;2023-02-01T08:44:36;1.90;;;1.23;;
71696;SDS011;59528;59.082;37.926;2023-02-01T08:47:02;1.90;;;1.40;;
71696;SDS011;59528;59.082;37.926;2023-02-01T08:49:28;1.50;;;1.30;;
71696;SDS011;59528;59.082;37.926;2023-02-01T08:51:54;1.80;;;1.40;;
71696;SDS011;59528;59.082;37.926;2023-02-01T08:54:20;2.53;;;1.40;;
71696;SDS011;59528;59.082;37.926;2023-02-01T08:56:46;2.40;;;1.60;;
71696;SDS011;59528;59.082;37.926;2023-02-01T08:59:11;2.00;;;1.40;;
71696;SDS011;59528;59.082;37.926;2023-02-01T09:01:37;1.93;;;1.23;;
71696;SDS011;59528;59.082;37.926;2023-02-01T09:04:03;1.87;;;1.20;;
71696;SDS011;59528;59.082;37.926;2023-02-01T09:06:28;1.90;;;1.50;;
71696;SDS011;59528;59.082;37.926;2023-02-01T09:08:54;1.70;;;1.37;;
71696;SDS011;59528;59.082;37.926;2023-02-01T09:11:21;1.60;;;1.50;;
71696;SDS011;59528;59.082;37.926;2023-02-01T09:13:46;1.47;;;1.30;;
71696;SDS011;59528;59.082;37.926;2023-02-01T09:16:12;1.83;;;1.40;;
71696;SDS011;59528;59.082;37.926;2023-02-01T09:18:41;1.90;;;1.30;;
71696;SDS011;59528;59.082;37.926;2023-02-01T09:21:07;1.60;;;1.27;;
71696;SDS011;59528;59.082;37.926;2023-02-01T09:23:33;1.37;;;1.20;;
71696;SDS011;59528;59.082;37.926;2023-02-01T09:26:03;1.80;;;1.23;;
71696;SDS011;59528;59.082;37.926;2023-02-01T09:28:29;1.83;;;1.20;;
71696;SDS011;59528;59.082;37.926;2023-02-01T09:30:55;1.60;;;1.23;;
71696;SDS011;59528;59.082;37.926;2023-02-01T09:33:21;1.63;;;1.30;;
71696;SDS011;59528;59.082;37.926;2023-02-01T09:35:54;2.13;;;1.30;;
71696;SDS011;59528;59.082;37.926;2023-02-01T09:38:20;2.37;;;1.43;;
71696;SDS011;59528;59.082;37.926;2023-02-01T09:40:46;1.50;;;1.10;;
71696;SDS011;59528;59.082;37.926;2023-02-01T09:45:41;1.37;;;1.27;;
71696;SDS011;59528;59.082;37.926;2023-02-01T09:48:16;1.93;;;1.40;;
71696;SDS011;59528;59.082;37.926;2023-02-01T09:50:44;2.30;;;1.20;;
71696;SDS011;59528;59.082;37.926;2023-02-01T09:53:16;1.37;;;1.00;;
71696;SDS011;59528;59.082;37.926;2023-02-01T09:55:45;1.20;;;1.10;;
71696;SDS011;59528;59.082;37.926;2023-02-01T09:58:30;1.33;;;1.13;;
71696;SDS011;59528;59.082;37.926;2023-02-01T10:00:59;1.33;;;1.10;;
71696;SDS011;59528;59.082;37.926;2023-02-01T10:03:28;1.60;;;1.30;;
71696;SDS011;59528;59.082;37.926;2023-02-01T10:10:56;1.87;;;1.20;;
71696;SDS011;59528;59.082;37.926;2023-02-01T10:28:40;1.63;;;1.10;;
71696;SDS011;59528;59.082;37.926;2023-02-01T10:31:06;1.50;;;1.40;;
71696;SDS011;59528;59.082;37.926;2023-02-01T10:33:35;1.33;;;1.13;;
71696;SDS011;59528;59.082;37.926;2023-02-01T10:36:21;1.30;;;1.10;;
71696;SDS011;59528;59.082;37.926;2023-02-01T10:38:47;2.10;;;1.13;;
71696;SDS011;59528;59.082;37.926;2023-02-01T10:41:14;1.70;;;1.13;;
71696;SDS011;59528;59.082;37.926;2023-02-01T10:43:40;1.23;;;0.97;;
71696;SDS011;59528;59.082;37.926;2023-02-01T10:46:06;1.23;;;1.10;;
71696;SDS011;59528;59.082;37.926;2023-02-01T10:48:32;1.33;;;1.10;;
71696;SDS011;59528;59.082;37.926;2023-02-01T10:51:00;1.23;;;1.07;;
71696;SDS011;59528;59.082;37.926;2023-02-01T10:53:31;1.40;;;1.00;;
71696;SDS011;59528;59.082;37.926;2023-02-01T10:56:07;1.93;;;1.10;;
71696;SDS011;59528;59.082;37.926;2023-02-01T10:58:34;1.37;;;1.17;;
71696;SDS011;59528;59.082;37.926;2023-02-01T11:01:08;1.37;;;1.00;;
71696;SDS011;59528;59.082;37.926;2023-02-01T11:03:39;1.20;;;0.90;;
71696;SDS011;59528;59.082;37.926;2023-02-01T11:08:57;1.37;;;1.10;;
71696;SDS011;59528;59.082;37.926;2023-02-01T11:11:23;2.13;;;1.17;;
71696;SDS011;59528;59.082;37.926;2023-02-01T11:13:55;1.83;;;1.30;;
71696;SDS011;59528;59.082;37.926;2023-02-01T11:16:21;1.53;;;1.10;;
71696;SDS011;59528;59.082;37.926;2023-02-01T11:18:47;1.37;;;1.10;;
71696;SDS011;59528;59.082;37.926;2023-02-01T11:21:18;1.63;;;1.37;;
71696;SDS011;59528;59.082;37.926;2023-02-01T11:23:44;1.63;;;1.30;;
71696;SDS011;59528;59.082;37.926;2023-02-01T11:26:11;1.93;;;1.47;;
71696;SDS011;59528;59.082;37.926;2023-02-01T11:28:39;1.67;;;1.50;;
71696;SDS011;59528;59.082;37.926;2023-02-01T11:31:06;1.97;;;1.60;;
71696;SDS011;59528;59.082;37.926;2023-02-01T11:33:34;1.53;;;1.43;;
71696;SDS011;59528;59.082;37.926;2023-02-01T11:36:12;2.00;;;1.70;;
71696;SDS011;59528;59.082;37.926;2023-02-01T11:38:51;2.10;;;1.90;;
71696;SDS011;59528;59.082;37.926;2023-02-01T11:43:54;2.17;;;1.60;;
71696;SDS011;59528;59.082;37.926;2023-02-01T11:46:22;3.73;;;1.80;;
71696;SDS011;59528;59.082;37.926;2023-02-01T11:48:51;2.17;;;1.97;;
71696;SDS011;59528;59.082;37.926;2023-02-01T11:51:37;2.60;;;2.10;;
71696;SDS011;59528;59.082;37.926;2023-02-01T11:54:21;2.40;;;2.00;;
71696;SDS011;59528;59.082;37.926;2023-02-01T12:07:57;2.27;;;1.80;;
71696;SDS011;59528;59.082;37.926;2023-02-01T12:13:02;3.03;;;2.07;;
71696;SDS011;59528;59.082;37.926;2023-02-01T12:20:47;2.70;;;2.00;;
71696;SDS011;59528;59.082;37.926;2023-02-01T12:33:14;3.43;;;2.10;;
71696;SDS011;59528;59.082;37.926;2023-02-01T12:35:45;3.40;;;2.27;;
71696;SDS011;59528;59.082;37.926;2023-02-01T12:38:26;2.60;;;1.80;;
71696;SDS011;59528;59.082;37.926;2023-02-01T12:43:45;2.50;;;1.93;;
71696;SDS011;59528;59.082;37.926;2023-02-01T12:46:16;2.30;;;1.90;;
71696;SDS011;59528;59.082;37.926;2023-02-01T12:51:18;2.70;;;2.00;;
71696;SDS011;59528;59.082;37.926;2023-02-01T12:56:34;2.73;;;1.80;;
71696;SDS011;59528;59.082;37.926;2023-02-01T12:59:03;1.90;;;1.70;;
71696;SDS011;59528;59.082;37.926;2023-02-01T13:01:32;2.53;;;1.97;;
71696;SDS011;59528;59.082;37.926;2023-02-01T13:04:05;2.83;;;1.80;;
71696;SDS011;59528;59.082;37.926;2023-02-01T13:06:41;3.00;;;1.80;;
71696;SDS011;59528;59.082;37.926;2023-02-01T13:09:15;2.17;;;1.83;;
71696;SDS011;59528;59.082;37.926;2023-02-01T13:11:43;2.83;;;1.90;;
71696;SDS011;59528;59.082;37.926;2023-02-01T13:14:28;2.07;;;1.70;;
71696;SDS011;59528;59.082;37.926;2023-02-01T13:16:57;1.93;;;1.67;;
71696;SDS011;59528;59.082;37.926;2023-02-01T13:21:55;2.40;;;1.87;;
71696;SDS011;59528;59.082;37.926;2023-02-01T13:24:24;2.30;;;1.77;;
71696;SDS011;59528;59.082;37.926;2023-02-01T13:26:55;2.43;;;1.50;;
71696;SDS011;59528;59.082;37.926;2023-02-01T13:29:21;2.70;;;1.60;;
71696;SDS011;59528;59.082;37.926;2023-02-01T13:37:21;1.80;;;1.50;;
71696;SDS011;59528;59.082;37.926;2023-02-01T13:42:21;2.73;;;1.73;;
71696;SDS011;59528;59.082;37.926;2023-02-01T13:44:58;1.97;;;1.47;;
71696;SDS011;59528;59.082;37.926;2023-02-01T13:47:30;2.37;;;1.50;;
71696;SDS011;59528;59.082;37.926;2023-02-01T13:49:57;2.00;;;1.60;;
71696;SDS011;59528;59.082;37.926;2023-02-01T13:52:25;2.87;;;1.57;;
71696;SDS011;59528;59.082;37.926;2023-02-01T13:55:00;1.57;;;1.47;;
71696;SDS011;59528;59.082;37.926;2023-02-01T13:57:36;2.63;;;1.50;;
71696;SDS011;59528;59.082;37.926;2023-02-01T14:02:48;1.50;;;1.40;;
71696;SDS011;59528;59.082;37.926;2023-02-01T14:23:47;3.57;;;1.60;;
71696;SDS011;59528;59.082;37.926;2023-02-01T14:26:14;1.97;;;1.50;;
71696;SDS011;59528;59.082;37.926;2023-02-01T14:28:42;2.33;;;1.50;;
71696;SDS011;59528;59.082;37.926;2023-02-01T14:31:16;1.97;;;1.50;;
71696;SDS011;59528;59.082;37.926;2023-02-01T14:33:43;1.77;;;1.47;;
71696;SDS011;59528;59.082;37.926;2023-02-01T14:36:11;2.57;;;1.50;;
71696;SDS011;59528;59.082;37.926;2023-02-01T14:38:38;2.10;;;1.50;;
71696;SDS011;59528;59.082;37.926;2023-02-01T14:44:13;2.33;;;1.60;;
71696;SDS011;59528;59.082;37.926;2023-02-01T14:49:29;2.97;;;1.60;;
71696;SDS011;59528;59.082;37.926;2023-02-01T14:51:54;2.53;;;1.70;;
71696;SDS011;59528;59.082;37.926;2023-02-01T14:54:21;1.53;;;1.43;;
71696;SDS011;59528;59.082;37.926;2023-02-01T14:56:48;1.97;;;1.57;;
71696;SDS011;59528;59.082;37.926;2023-02-01T14:59:15;2.00;;;1.70;;
71696;SDS011;59528;59.082;37.926;2023-02-01T15:01:50;2.33;;;1.90;;
71696;SDS011;59528;59.082;37.926;2023-02-01T15:04:17;3.13;;;2.10;;
71696;SDS011;59528;59.082;37.926;2023-02-01T15:09:18;2.10;;;1.90;;
71696;SDS011;59528;59.082;37.926;2023-02-01T15:14:31;2.60;;;1.90;;
71696;SDS011;59528;59.082;37.926;2023-02-01T15:16:57;2.40;;;2.00;;
71696;SDS011;59528;59.082;37.926;2023-02-01T17:20:32;24.50;;;8.80;;
71696;SDS011;59528;59.082;37.926;2023-02-01T17:22:57;35.27;;;12.77;;
71696;SDS011;59528;59.082;37.926;2023-02-01T17:25:23;40.70;;;12.90;;
71696;SDS011;59528;59.082;37.926;2023-02-01T17:27:51;30.67;;;12.37;;
71696;SDS011;59528;59.082;37.926;2023-02-01T17:30:17;31.60;;;11.90;;
71696;SDS011;59528;59.082;37.926;2023-02-01T17:32:43;34.43;;;12.30;;
71696;SDS011;59528;59.082;37.926;2023-02-01T17:35:17;33.77;;;11.23;;
71696;SDS011;59528;59.082;37.926;2023-02-01T17:37:45;26.57;;;10.33;;
71696;SDS011;59528;59.082;37.926;2023-02-01T17:40:11;28.07;;;9.83;;
71696;SDS011;59528;59.082;37.926;2023-02-01T17:42:38;27.37;;;10.67;;
71696;SDS011;59528;59.082;37.926;2023-02-01T17:45:21;23.53;;;10.47;;
71696;SDS011;59528;59.082;37.926;2023-02-01T17:47:51;25.13;;;8.97;;
71696;SDS011;59528;59.082;37.926;2023-02-01T17:50:16;25.17;;;9.70;;
71696;SDS011;59528;59.082;37.926;2023-02-01T17:52:43;21.70;;;9.00;;
71696;SDS011;59528;59.082;37.926;2023-02-01T17:55:17;17.97;;;7.97;;
71696;SDS011;59528;59.082;37.926;2023-02-01T17:57:44;18.93;;;7.23;;
71696;SDS011;59528;59.082;37.926;2023-02-01T18:00:10;15.70;;;7.00;;
71696;SDS011;59528;59.082;37.926;2023-02-01T18:02:39;22.83;;;7.57;;
71696;SDS011;59528;59.082;37.926;2023-02-01T18:05:23;17.27;;;6.90;;
71696;SDS011;59528;59.082;37.926;2023-02-01T18:07:53;17.87;;;6.73;;
71696;SDS011;59528;59.082;37.926;2023-02-01T18:10:18;19.30;;;7.40;;
71696;SDS011;59528;59.082;37.926;2023-02-01T18:12:44;15.43;;;6.30;;
71696;SDS011;59528;59.082;37.926;2023-02-01T18:15:18;13.53;;;6.30;;
71696;SDS011;59528;59.082;37.926;2023-02-01T18:17:44;16.50;;;6.70;;
71696;SDS011;59528;59.082;37.926;2023-02-01T18:20:13;14.90;;;5.97;;
71696;SDS011;59528;59.082;37.926;2023-02-01T18:22:40;13.53;;;6.03;;
71696;SDS011;59528;59.082;37.926;2023-02-01T18:25:24;13.07;;;5.60;;
71696;SDS011;59528;59.082;37.926;2023-02-01T18:27:51;12.67;;;6.10;;
71696;SDS011;59528;59.082;37.926;2023-02-01T18:30:18;13.57;;;6.27;;
71696;SDS011;59528;59.082;37.926;2023-02-01T18:32:48;14.07;;;5.73;;
71696;SDS011;59528;59.082;37.926;2023-02-01T18:35:18;10.97;;;5.30;;
71696;SDS011;59528;59.082;37.926;2023-02-01T18:37:44;12.77;;;5.63;;
71696;SDS011;59528;59.082;37.926;2023-02-01T18:40:13;11.30;;;5.47;;
71696;SDS011;59528;59.082;37.926;2023-02-01T18:42:40;12.80;;;5.87;;
71696;SDS011;59528;59.082;37.926;2023-02-01T18:45:40;11.20;;;5.77;;
71696;SDS011;59528;59.082;37.926;2023-02-01T18:47:59;10.60;;;4.93;;
71696;SDS011;59528;59.082;37.926;2023-02-01T18:50:25;11.50;;;5.50;;
71696;SDS011;59528;59.082;37.926;2023-02-01T18:52:54;9.50;;;4.57;;
71696;SDS011;59528;59.082;37.926;2023-02-01T18:55:20;9.30;;;5.00;;
71696;SDS011;59528;59.082;37.926;2023-02-01T18:57:46;8.73;;;4.60;;
71696;SDS011;59528;59.082;37.926;2023-02-01T19:00:15;11.10;;;4.63;;
71696;SDS011;59528;59.082;37.926;2023-02-01T19:02:41;10.33;;;5.50;;
71696;SDS011;59528;59.082;37.926;2023-02-01T19:05:07;9.10;;;4.60;;
71696;SDS011;59528;59.082;37.926;2023-02-01T19:07:36;9.17;;;4.60;;
71696;SDS011;59528;59.082;37.926;2023-02-01T19:10:06;9.17;;;4.43;;
71696;SDS011;59528;59.082;37.926;2023-02-01T19:13:50;9.10;;;4.70;;
71696;SDS011;59528;59.082;37.926;2023-02-01T19:16:34;8.07;;;3.90;;
71696;SDS011;59528;59.082;37.926;2023-02-01T19:20:18;7.83;;;3.83;;